createdAt,value
2019-05-30T00:00:05.838Z,2.63
2019-05-30T00:02:23.719Z,2.70
2019-05-30T00:04:56.111Z,4.90
2019-05-30T00:07:28.075Z,4.83
2019-05-30T00:10:00.592Z,4.30
2019-05-30T00:12:32.492Z,4.27
2019-05-30T00:15:06.448Z,4.97
2019-05-30T00:17:38.556Z,4.50
2019-05-30T00:20:10.774Z,4.83
2019-05-30T00:22:42.846Z,5.10
2019-05-30T00:25:14.912Z,14.00
2019-05-30T00:27:46.779Z,27.20
2019-05-30T00:30:24.473Z,31.10
2019-05-30T00:32:52.325Z,7.90
2019-05-30T00:35:24.223Z,8.40
2019-05-30T00:37:56.115Z,13.83
2019-05-30T00:40:28.002Z,13.90
2019-05-30T00:43:00.075Z,8.40
2019-05-30T00:45:31.997Z,4.43
2019-05-30T00:48:04.487Z,2.53
2019-05-30T00:50:36.283Z,2.77
2019-05-30T00:53:08.349Z,3.47
2019-05-30T00:55:40.382Z,4.90
2019-05-30T00:58:12.256Z,6.30
2019-05-30T01:00:44.489Z,10.77
2019-05-30T01:03:16.376Z,10.90
2019-05-30T01:05:48.230Z,4.50
2019-05-30T01:08:20.022Z,6.00
2019-05-30T01:10:51.891Z,9.47
2019-05-30T01:13:23.681Z,6.00
2019-05-30T01:15:56.837Z,4.27
2019-05-30T01:18:28.817Z,3.33
2019-05-30T01:21:01.320Z,4.87
2019-05-30T01:23:34.272Z,5.10
2019-05-30T01:26:06.064Z,4.70
2019-05-30T01:28:37.951Z,5.27
2019-05-30T01:31:11.543Z,5.00
2019-05-30T01:33:43.404Z,4.80
2019-05-30T01:36:15.213Z,5.43
2019-05-30T01:38:47.076Z,6.40
2019-05-30T01:41:19.257Z,6.27
2019-05-30T01:43:51.140Z,7.17
2019-05-30T01:46:22.951Z,6.50
2019-05-30T01:48:54.816Z,9.17
2019-05-30T01:51:26.611Z,7.43
2019-05-30T01:53:58.439Z,6.83
2019-05-30T01:56:30.241Z,7.00
2019-05-30T01:59:02.662Z,6.67
2019-05-30T02:01:34.615Z,8.43
2019-05-30T02:04:07.404Z,8.30
2019-05-30T02:06:39.363Z,10.27
2019-05-30T02:09:11.764Z,9.03
2019-05-30T02:11:43.733Z,8.77
2019-05-30T02:14:15.581Z,8.97
2019-05-30T02:16:47.365Z,9.53
2019-05-30T02:19:20.351Z,7.40
2019-05-30T02:21:52.130Z,7.23
2019-05-30T02:24:24.026Z,6.40
2019-05-30T02:26:55.880Z,5.27
2019-05-30T02:29:27.759Z,5.47
2019-05-30T02:32:00.953Z,5.57
2019-05-30T02:34:33.109Z,5.87
2019-05-30T02:37:06.116Z,6.70
2019-05-30T02:39:38.766Z,6.67
2019-05-30T02:42:11.681Z,7.13
2019-05-30T02:44:43.673Z,7.00
2019-05-30T02:47:15.480Z,9.47
2019-05-30T02:49:48.399Z,9.27
2019-05-30T02:52:20.284Z,13.57
2019-05-30T02:54:52.149Z,10.10
2019-05-30T02:57:24.026Z,11.20
2019-05-30T02:59:55.847Z,10.37
2019-05-30T03:02:27.623Z,9.27
2019-05-30T03:04:59.472Z,9.60
2019-05-30T03:07:31.481Z,11.67
2019-05-30T03:10:05.099Z,9.70
2019-05-30T03:12:37.177Z,8.90
2019-05-30T03:15:12.211Z,10.37
2019-05-30T03:17:42.740Z,10.00
2019-05-30T03:20:22.561Z,10.27
2019-05-30T03:22:49.274Z,8.97
2019-05-30T03:25:21.166Z,8.07
2019-05-30T03:27:53.031Z,7.17
2019-05-30T03:30:27.984Z,7.03
2019-05-30T03:33:07.322Z,6.93
2019-05-30T03:35:40.983Z,5.67
2019-05-30T03:38:07.770Z,4.43
2019-05-30T03:40:39.204Z,3.63
2019-05-30T03:43:11.732Z,3.03
2019-05-30T03:45:45.392Z,2.60
2019-05-30T03:48:18.598Z,2.30
2019-05-30T03:50:52.589Z,2.63
2019-05-30T03:53:24.646Z,2.50
2019-05-30T03:56:02.286Z,2.20
2019-05-30T03:58:45.100Z,2.53
2019-05-30T04:01:22.505Z,2.40
2019-05-30T04:04:01.187Z,2.77
2019-05-30T04:06:37.191Z,2.80
2019-05-30T04:09:12.396Z,2.30
2019-05-30T04:12:10.629Z,2.87
2019-05-30T04:14:43.776Z,2.93
2019-05-30T04:17:17.664Z,3.37
2019-05-30T04:19:49.202Z,3.43
2019-05-30T04:22:21.109Z,6.63
2019-05-30T04:24:52.967Z,8.63
2019-05-30T04:27:24.774Z,10.40
2019-05-30T04:29:56.595Z,10.80
2019-05-30T04:32:28.423Z,10.90
2019-05-30T04:35:00.228Z,9.93
2019-05-30T04:37:32.365Z,8.27
2019-05-30T04:40:04.259Z,7.83
2019-05-30T04:42:36.446Z,6.90
2019-05-30T04:45:09.638Z,5.57
2019-05-30T04:47:41.888Z,4.97
2019-05-30T04:50:14.405Z,3.17
2019-05-30T04:52:46.689Z,3.60
2019-05-30T04:55:22.323Z,5.83
2019-05-30T04:57:52.212Z,3.67
2019-05-30T05:00:24.004Z,2.37
2019-05-30T05:02:56.376Z,2.40
2019-05-30T05:05:28.183Z,4.80
2019-05-30T05:08:00.002Z,2.00
2019-05-30T05:10:31.781Z,2.50
2019-05-30T05:13:03.694Z,2.57
2019-05-30T05:15:35.510Z,2.37
2019-05-30T05:18:07.669Z,2.67
2019-05-30T05:20:39.475Z,2.77
2019-05-30T05:23:11.328Z,2.67
2019-05-30T05:25:43.188Z,2.60
2019-05-30T05:28:15.750Z,3.43
2019-05-30T05:30:48.294Z,2.20
2019-05-30T05:33:20.549Z,2.60
2019-05-30T05:35:53.542Z,2.63
2019-05-30T05:38:25.407Z,2.77
2019-05-30T05:40:57.209Z,2.60
2019-05-30T05:43:29.014Z,2.23
2019-05-30T05:46:00.810Z,2.83
2019-05-30T05:48:32.681Z,3.47
2019-05-30T05:51:04.722Z,2.57
2019-05-30T05:53:36.676Z,2.70
2019-05-30T05:56:08.469Z,2.40
2019-05-30T05:58:40.350Z,2.90
2019-05-30T06:01:12.230Z,2.13
2019-05-30T06:03:44.229Z,2.37
2019-05-30T06:06:17.155Z,1.60
2019-05-30T06:08:49.133Z,1.50
2019-05-30T06:11:21.014Z,1.60
2019-05-30T06:13:52.810Z,1.93
2019-05-30T06:16:24.673Z,2.27
2019-05-30T06:18:56.480Z,2.73
2019-05-30T06:21:28.295Z,2.50
2019-05-30T06:24:01.151Z,2.47
2019-05-30T06:26:33.024Z,2.53
2019-05-30T06:29:04.926Z,1.57
2019-05-30T06:31:36.784Z,1.80
2019-05-30T06:34:08.570Z,1.90
2019-05-30T06:36:40.373Z,1.60
2019-05-30T06:39:12.187Z,1.50
2019-05-30T06:42:15.295Z,1.73
2019-05-30T06:44:52.642Z,1.97
2019-05-30T06:47:24.535Z,2.60
2019-05-30T06:49:56.346Z,2.10
2019-05-30T06:52:29.158Z,1.67
2019-05-30T06:55:01.089Z,2.00
2019-05-30T06:57:34.099Z,2.10
2019-05-30T07:00:07.245Z,1.80
2019-05-30T07:02:39.206Z,1.43
2019-05-30T07:05:11.918Z,1.03
2019-05-30T07:07:45.529Z,1.07
2019-05-30T07:10:17.732Z,1.80
2019-05-30T07:12:49.639Z,4.50
2019-05-30T07:15:21.605Z,1.60
2019-05-30T07:17:53.475Z,1.63
2019-05-30T07:20:25.593Z,1.30
2019-05-30T07:22:57.521Z,1.63
2019-05-30T07:25:29.967Z,1.63
2019-05-30T07:28:01.789Z,1.70
2019-05-30T07:30:34.231Z,6.43
2019-05-30T07:33:06.173Z,4.90
2019-05-30T07:35:38.330Z,4.20
2019-05-30T07:38:10.379Z,2.53
2019-05-30T07:40:42.226Z,2.70
2019-05-30T07:43:14.100Z,4.77
2019-05-30T07:45:57.397Z,2.37
2019-05-30T07:48:19.483Z,1.10
2019-05-30T07:50:52.102Z,3.00
2019-05-30T07:53:24.507Z,0.60
2019-05-30T07:55:56.357Z,1.23
2019-05-30T07:58:29.082Z,2.70
2019-05-30T08:01:00.870Z,2.50
2019-05-30T08:03:34.699Z,0.90
2019-05-30T08:06:07.219Z,1.17
2019-05-30T08:08:39.008Z,0.80
2019-05-30T08:11:12.066Z,2.43
2019-05-30T08:13:43.940Z,1.33
2019-05-30T08:16:15.758Z,1.10
2019-05-30T08:18:47.702Z,1.93
2019-05-30T08:21:19.501Z,1.13
2019-05-30T08:23:51.374Z,1.27
2019-05-30T08:26:23.168Z,0.83
2019-05-30T08:28:56.013Z,1.40
2019-05-30T08:31:28.583Z,1.17
2019-05-30T08:34:00.557Z,1.13
2019-05-30T08:36:32.831Z,1.10
2019-05-30T08:39:06.575Z,1.00
2019-05-30T08:41:39.474Z,1.07
2019-05-30T08:44:11.410Z,1.10
2019-05-30T08:46:43.212Z,1.00
2019-05-30T08:49:14.996Z,1.00
2019-05-30T08:51:46.805Z,1.17
2019-05-30T08:54:18.693Z,0.90
2019-05-30T08:56:50.512Z,0.87
2019-05-30T08:59:22.368Z,1.30
2019-05-30T09:01:54.186Z,1.10
2019-05-30T09:04:26.164Z,1.03
2019-05-30T09:06:58.028Z,0.93
2019-05-30T09:09:29.907Z,1.43
2019-05-30T09:12:01.860Z,1.20
2019-05-30T09:14:33.785Z,1.13
2019-05-30T09:17:05.687Z,1.30
2019-05-30T09:19:38.452Z,1.20
2019-05-30T09:22:11.637Z,1.10
2019-05-30T09:24:44.055Z,1.23
2019-05-30T09:27:15.952Z,1.10
2019-05-30T09:29:48.272Z,1.00
2019-05-30T09:32:20.210Z,0.87
2019-05-30T09:34:52.974Z,0.90
2019-05-30T09:37:24.840Z,1.03
2019-05-30T09:39:56.623Z,1.30
2019-05-30T09:42:28.472Z,1.40
2019-05-30T09:45:01.345Z,1.43
2019-05-30T09:47:33.293Z,0.87
2019-05-30T09:50:05.975Z,1.23
2019-05-30T09:52:37.778Z,1.27
2019-05-30T09:55:09.925Z,1.13
2019-05-30T09:57:43.039Z,1.30
2019-05-30T10:00:17.487Z,1.50
2019-05-30T10:02:50.497Z,1.00
2019-05-30T10:05:24.661Z,1.20
2019-05-30T10:07:56.828Z,1.30
2019-05-30T10:10:28.889Z,1.50
2019-05-30T10:13:00.762Z,1.50
2019-05-30T10:15:32.710Z,0.90
2019-05-30T10:18:04.900Z,1.10
2019-05-30T10:20:36.781Z,1.00
2019-05-30T10:23:08.663Z,1.50
2019-05-30T10:25:40.575Z,1.30
2019-05-30T10:28:12.467Z,1.43
2019-05-30T10:30:50.939Z,1.00
2019-05-30T10:33:18.985Z,1.13
2019-05-30T10:35:51.651Z,1.50
2019-05-30T10:38:24.084Z,1.00
2019-05-30T10:40:56.096Z,1.23
2019-05-30T10:43:28.048Z,1.50
2019-05-30T10:45:59.926Z,1.63
2019-05-30T10:48:31.789Z,1.63
2019-05-30T10:51:03.745Z,1.83
2019-05-30T10:53:37.633Z,1.43
2019-05-30T10:56:09.184Z,2.63
2019-05-30T10:58:40.986Z,1.33
2019-05-30T11:01:12.943Z,1.67
2019-05-30T11:03:45.832Z,1.53
2019-05-30T11:06:30.470Z,1.43
2019-05-30T11:09:04.724Z,1.30
2019-05-30T11:11:37.249Z,1.70
2019-05-30T11:14:09.033Z,1.60
2019-05-30T11:16:41.027Z,1.90
2019-05-30T11:19:12.882Z,1.70
2019-05-30T11:21:44.671Z,1.15
2019-05-30T11:24:16.454Z,1.57
2019-05-30T11:26:50.443Z,1.80
2019-05-30T11:29:21.754Z,1.40
2019-05-30T11:31:54.888Z,1.40
2019-05-30T11:34:26.946Z,1.50
2019-05-30T11:36:59.327Z,2.95
2019-05-30T11:39:32.395Z,1.45
2019-05-30T11:42:04.273Z,1.75
2019-05-30T11:44:36.116Z,1.60
2019-05-30T11:47:08.088Z,1.32
2019-05-30T11:49:40.060Z,1.57
2019-05-30T11:52:13.492Z,1.87
2019-05-30T11:54:45.372Z,1.65
2019-05-30T11:57:17.145Z,1.72
2019-05-30T11:59:50.076Z,1.62
2019-05-30T12:02:22.037Z,2.08
2019-05-30T12:04:54.526Z,1.75
2019-05-30T12:07:35.913Z,2.00
2019-05-30T12:10:01.092Z,1.60
2019-05-30T12:12:33.158Z,1.80
2019-05-30T12:15:05.484Z,1.92
2019-05-30T12:17:37.431Z,1.95
2019-05-30T12:20:09.715Z,1.80
2019-05-30T12:22:41.724Z,1.95
2019-05-30T12:25:13.696Z,2.98
2019-05-30T12:27:45.570Z,1.95
2019-05-30T12:30:17.724Z,1.60
2019-05-30T12:32:52.242Z,2.00
2019-05-30T12:35:24.432Z,1.80
2019-05-30T12:38:01.592Z,1.60
2019-05-30T12:40:29.892Z,1.95
2019-05-30T12:43:03.708Z,1.80
2019-05-30T12:45:36.440Z,1.50
2019-05-30T12:48:08.444Z,1.92
2019-05-30T12:50:40.513Z,1.42
2019-05-30T12:53:12.393Z,1.92
2019-05-30T12:55:44.370Z,5.70
2019-05-30T12:58:16.251Z,1.60
2019-05-30T13:00:48.160Z,1.82
2019-05-30T13:03:20.035Z,1.17
2019-05-30T13:05:51.902Z,1.62
2019-05-30T13:08:23.701Z,1.80
2019-05-30T13:10:55.651Z,1.87
2019-05-30T13:13:27.501Z,1.40
2019-05-30T13:16:01.061Z,1.47
2019-05-30T13:18:34.512Z,1.62
2019-05-30T13:21:06.523Z,1.60
2019-05-30T13:23:39.395Z,1.40
2019-05-30T13:26:11.277Z,1.37
2019-05-30T13:28:44.591Z,1.30
2019-05-30T13:31:19.829Z,1.20
2019-05-30T13:33:52.112Z,1.40
2019-05-30T13:36:23.976Z,1.98
2019-05-30T13:38:57.035Z,1.40
2019-05-30T13:41:31.923Z,1.42
2019-05-30T13:44:06.832Z,1.75
2019-05-30T13:46:38.604Z,1.42
2019-05-30T13:49:10.906Z,1.45
2019-05-30T13:51:43.131Z,1.67
2019-05-30T13:54:15.121Z,1.42
2019-05-30T13:56:47.001Z,1.27
2019-05-30T13:59:19.800Z,1.42
2019-05-30T14:01:52.959Z,3.17
2019-05-30T14:04:25.443Z,1.45
2019-05-30T14:06:57.318Z,2.05
2019-05-30T14:09:30.385Z,1.45
2019-05-30T14:12:02.463Z,4.33
2019-05-30T14:14:34.685Z,4.90
2019-05-30T14:17:10.405Z,1.52
2019-05-30T14:19:41.575Z,3.72
2019-05-30T14:22:13.504Z,1.20
2019-05-30T14:24:45.283Z,1.60
2019-05-30T14:27:17.054Z,1.30
2019-05-30T14:29:48.843Z,1.62
2019-05-30T14:32:20.710Z,1.70
2019-05-30T14:34:52.558Z,1.30
2019-05-30T14:37:24.429Z,1.32
2019-05-30T14:39:56.215Z,1.15
2019-05-30T14:42:28.000Z,1.67
2019-05-30T14:44:59.784Z,2.58
2019-05-30T14:47:33.694Z,1.92
2019-05-30T14:50:08.981Z,1.62
2019-05-30T14:52:41.060Z,64.62
2019-05-30T14:55:13.416Z,4.17
2019-05-30T14:57:46.607Z,4.47
2019-05-30T15:00:19.268Z,1.85
2019-05-30T15:02:51.213Z,1.22
2019-05-30T15:05:23.166Z,14.18
2019-05-30T15:07:55.090Z,3.60
2019-05-30T15:10:26.890Z,2.92
2019-05-30T15:12:58.781Z,2.58
2019-05-30T15:15:30.599Z,1.80
2019-05-30T15:18:02.467Z,1.37
2019-05-30T15:20:34.416Z,3.87
2019-05-30T15:23:07.636Z,2.33
2019-05-30T15:25:39.594Z,1.55
2019-05-30T15:28:12.227Z,1.57
2019-05-30T15:30:44.191Z,1.75
2019-05-30T15:33:16.601Z,1.80
2019-05-30T15:35:49.478Z,1.92
2019-05-30T15:38:21.262Z,6.58
2019-05-30T15:40:53.066Z,2.85
2019-05-30T15:43:24.947Z,1.65
2019-05-30T15:45:56.812Z,4.17
2019-05-30T15:48:28.622Z,2.30
2019-05-30T15:51:00.500Z,2.10
2019-05-30T15:53:32.367Z,3.02
2019-05-30T15:56:04.489Z,2.17
2019-05-30T15:58:37.586Z,7.70
2019-05-30T16:01:09.842Z,1.47
2019-05-30T16:03:41.734Z,1.25
2019-05-30T16:06:14.463Z,1.95
2019-05-30T16:08:46.349Z,6.95
2019-05-30T16:11:19.109Z,1.40
2019-05-30T16:13:50.990Z,2.65
2019-05-30T16:16:38.794Z,1.55
2019-05-30T16:18:56.462Z,1.15
2019-05-30T16:21:28.335Z,1.32
2019-05-30T16:24:00.184Z,1.60
2019-05-30T16:26:32.072Z,1.42
2019-05-30T16:29:04.096Z,1.65
2019-05-30T16:31:35.950Z,1.35
2019-05-30T16:34:08.098Z,1.87
2019-05-30T16:36:40.514Z,6.40
2019-05-30T16:39:12.357Z,1.98
2019-05-30T16:41:44.222Z,1.50
2019-05-30T16:44:16.250Z,1.82
2019-05-30T16:46:48.113Z,1.52
2019-05-30T16:49:21.094Z,2.42
2019-05-30T16:51:52.942Z,2.22
2019-05-30T16:54:24.744Z,2.62
2019-05-30T16:56:56.606Z,1.75
2019-05-30T16:59:28.497Z,1.87
2019-05-30T17:02:00.291Z,1.30
2019-05-30T17:04:32.158Z,1.60
2019-05-30T17:07:04.082Z,1.57
2019-05-30T17:09:35.946Z,1.95
2019-05-30T17:12:08.085Z,2.02
2019-05-30T17:14:39.963Z,1.70
2019-05-30T17:17:11.832Z,3.75
2019-05-30T17:19:43.692Z,1.45
2019-05-30T17:22:16.602Z,1.37
2019-05-30T17:24:48.525Z,1.75
2019-05-30T17:27:20.321Z,1.42
2019-05-30T17:29:52.177Z,3.15
2019-05-30T17:32:23.980Z,3.83
2019-05-30T17:34:55.838Z,2.00
2019-05-30T17:37:28.520Z,2.58
2019-05-30T17:40:00.411Z,2.02
2019-05-30T17:42:32.275Z,2.00
2019-05-30T17:45:05.039Z,2.47
2019-05-30T17:47:37.501Z,3.77
2019-05-30T17:50:09.783Z,2.67
2019-05-30T17:52:41.728Z,2.77
2019-05-30T17:55:13.587Z,2.87
2019-05-30T17:57:45.461Z,3.35
2019-05-30T18:00:17.748Z,3.25
2019-05-30T18:02:50.536Z,3.15
2019-05-30T18:05:24.477Z,3.00
2019-05-30T18:07:56.461Z,2.85
2019-05-30T18:10:29.035Z,2.80
2019-05-30T18:13:00.983Z,2.70
2019-05-30T18:15:32.908Z,2.33
2019-05-30T18:18:05.692Z,3.70
2019-05-30T18:20:47.656Z,2.90
2019-05-30T18:23:11.968Z,2.42
2019-05-30T18:25:43.823Z,4.95
2019-05-30T18:28:15.719Z,2.20
2019-05-30T18:30:47.588Z,1.82
2019-05-30T18:33:19.409Z,2.92
2019-05-30T18:35:51.296Z,2.83
2019-05-30T18:38:24.253Z,3.95
2019-05-30T18:41:10.165Z,5.37
2019-05-30T18:43:30.837Z,6.45
2019-05-30T18:46:02.835Z,7.50
2019-05-30T18:48:34.713Z,5.50
2019-05-30T18:51:06.523Z,5.12
2019-05-30T18:53:38.728Z,4.05
2019-05-30T18:56:10.746Z,6.62
2019-05-30T18:58:42.741Z,7.23
2019-05-30T19:01:14.834Z,8.73
2019-05-30T19:03:47.142Z,13.83
2019-05-30T19:06:18.938Z,17.97
2019-05-30T19:08:50.822Z,20.77
2019-05-30T19:11:28.113Z,15.07
2019-05-30T19:13:56.668Z,18.13
2019-05-30T19:16:28.575Z,23.00
2019-05-30T19:19:00.481Z,25.83
2019-05-30T19:21:34.056Z,28.70
2019-05-30T19:24:06.243Z,18.67
2019-05-30T19:26:38.289Z,35.97
2019-05-30T19:29:10.209Z,54.03
2019-05-30T19:31:42.124Z,60.13
2019-05-30T19:34:14.101Z,34.47
2019-05-30T19:36:46.093Z,22.67
2019-05-30T19:39:17.989Z,38.43
2019-05-30T19:41:56.766Z,86.57
2019-05-30T19:44:23.509Z,37.27
2019-05-30T19:46:55.369Z,68.00
2019-05-30T19:49:28.293Z,114.20
2019-05-30T19:52:00.376Z,135.83
2019-05-30T19:54:33.104Z,71.60
2019-05-30T19:57:06.070Z,60.70
2019-05-30T19:59:39.875Z,73.10
2019-05-30T20:02:12.349Z,32.40
2019-05-30T20:04:44.227Z,24.33
2019-05-30T20:07:16.185Z,31.90
2019-05-30T20:10:00.477Z,40.53
2019-05-30T20:12:21.607Z,19.13
2019-05-30T20:14:53.584Z,19.47
2019-05-30T20:17:30.020Z,25.07
2019-05-30T20:20:01.350Z,28.83
2019-05-30T20:22:33.944Z,27.83
2019-05-30T20:25:08.327Z,22.27
2019-05-30T20:27:40.877Z,24.13
2019-05-30T20:30:13.183Z,40.67
2019-05-30T20:32:45.060Z,35.83
2019-05-30T20:35:16.975Z,16.07
2019-05-30T20:37:48.871Z,12.87
2019-05-30T20:40:20.832Z,13.00
2019-05-30T20:42:52.700Z,14.17
2019-05-30T20:45:24.595Z,12.33
2019-05-30T20:47:56.470Z,11.37
2019-05-30T20:50:28.432Z,10.83
2019-05-30T20:53:00.286Z,9.93
2019-05-30T20:55:32.198Z,12.63
2019-05-30T20:58:05.087Z,13.23
2019-05-30T21:00:39.820Z,14.43
2019-05-30T21:03:11.971Z,17.07
2019-05-30T21:05:45.963Z,17.93
2019-05-30T21:08:17.912Z,17.67
2019-05-30T21:10:50.683Z,27.90
2019-05-30T21:13:22.551Z,27.73
2019-05-30T21:15:55.252Z,23.73
2019-05-30T21:18:28.824Z,24.37
2019-05-30T21:21:00.709Z,31.23
2019-05-30T21:23:32.576Z,34.17
2019-05-30T21:26:04.527Z,36.17
2019-05-30T21:28:36.657Z,25.30
2019-05-30T21:31:08.454Z,25.43
2019-05-30T21:33:41.612Z,56.23
2019-05-30T21:36:13.831Z,41.90
2019-05-30T21:38:46.081Z,41.70
2019-05-30T21:41:17.910Z,44.93
2019-05-30T21:43:49.703Z,28.10
2019-05-30T21:46:21.715Z,16.23
2019-05-30T21:48:53.510Z,14.63
2019-05-30T21:51:25.415Z,17.00
2019-05-30T21:53:57.246Z,16.43
2019-05-30T21:56:29.216Z,16.97
2019-05-30T21:59:01.080Z,17.73
2019-05-30T22:01:34.921Z,19.00
2019-05-30T22:04:07.299Z,18.87
2019-05-30T22:06:39.166Z,18.67
2019-05-30T22:09:11.477Z,19.63
2019-05-30T22:11:43.676Z,18.33
2019-05-30T22:14:15.580Z,21.33
2019-05-30T22:16:47.914Z,17.33
2019-05-30T22:19:19.891Z,17.33
2019-05-30T22:21:52.323Z,20.20
2019-05-30T22:24:24.306Z,19.10
2019-05-30T22:26:56.172Z,19.07
2019-05-30T22:29:28.038Z,22.40
2019-05-30T22:32:00.114Z,19.77
2019-05-30T22:34:31.988Z,19.63
2019-05-30T22:37:03.821Z,21.53
2019-05-30T22:39:35.704Z,24.50
2019-05-30T22:42:07.905Z,19.47
2019-05-30T22:44:39.759Z,24.43
2019-05-30T22:47:11.541Z,25.67
2019-05-30T22:49:44.533Z,26.67
2019-05-30T22:52:16.499Z,28.80
2019-05-30T22:54:49.088Z,27.50
2019-05-30T22:57:20.976Z,24.17
2019-05-30T22:59:53.093Z,21.17
2019-05-30T23:02:25.002Z,22.67
2019-05-30T23:04:56.878Z,21.73
2019-05-30T23:07:28.847Z,19.70
2019-05-30T23:10:00.702Z,21.23
2019-05-30T23:12:32.770Z,20.63
2019-05-30T23:15:04.956Z,20.00
2019-05-30T23:17:36.820Z,18.83
2019-05-30T23:20:09.167Z,17.23
2019-05-30T23:22:41.440Z,16.07
2019-05-30T23:25:13.302Z,21.07
2019-05-30T23:27:45.173Z,17.83
2019-05-30T23:30:17.233Z,17.43
2019-05-30T23:32:50.447Z,18.60
2019-05-30T23:35:22.379Z,26.73
2019-05-30T23:37:54.725Z,23.70
2019-05-30T23:40:26.662Z,23.30
2019-05-30T23:42:59.247Z,24.87
2019-05-30T23:45:31.150Z,21.27
2019-05-30T23:48:03.106Z,21.07
2019-05-30T23:50:34.971Z,18.10
2019-05-30T23:53:06.845Z,18.43
2019-05-30T23:55:38.716Z,16.70
2019-05-30T23:58:10.518Z,15.33
